There are multiple Weather-warnings   Click here for more information


Meteo18 Weather Cam more information Meteo18 Weather Cam


warning for Thunderstorms more information blitzortung!


Rain radar more information rain snow radar


Visit our other weather sites:

Template documentation
and downloads

And another site



Weather Underground History page Text

Daily Summary for November 18, 2017 Units:  Both    English   Metric
« Previous Day
Next Day »
Daily Weekly Monthly Yearly Custom
  High: Low: Average:
Temperature: 47.8 °F /  8.8 °C 39.7 °F /  4.3 °C 45 °F /  7.2 °C
Dew Point: 43.2 °F /  6.2 °C 37.6 °F /  3.1 °C 40.1 °F /  4.5 °C
Humidity: 94 % 71 % 84 %
Wind Speed: 7 mph /  11.3 km/h - 1.2 mph /  2 km/h
Wind Gust: 11 mph /  17.7 km/h - -
Wind:- - South
Pressure: 30.3 in /  1027.3 hPa 30.3 in /  1024.9 hPa -
Precipitation: 0 in /  0.0 mm    
Historical Graphs
 
 
Tabular Data for November 18, 2017
Time Temperature Dew Point Pressure Wind Wind Speed Wind Gust Humidity Rainfall Rate (Hourly)
00:02 44.8 °F /  7.1 °C 43.2 °F /  6.2 °C 30.3 in /  1026.6 hPa NE 5 mph /  8.0 km/h 6 mph /  9.7 km/h 94 % 0 in /  0.0 mm
00:07 44.8 °F /  7.1 °C 42.8 °F /  6.0 °C 30.3 in /  1026.6 hPa NW 4 mph /  6.4 km/h 7 mph /  11.3 km/h 93 % 0 in /  0.0 mm
00:12 44.8 °F /  7.1 °C 42.8 °F /  6.0 °C 30.3 in /  1026.6 hPa North 4 mph /  6.4 km/h 9 mph /  14.5 km/h 93 % 0 in /  0.0 mm
00:17 44.8 °F /  7.1 °C 43.2 °F /  6.2 °C 30.3 in /  1026.6 hPa NE 3 mph /  4.8 km/h 9 mph /  14.5 km/h 94 % 0 in /  0.0 mm
00:22 44.6 °F /  7.0 °C 42.6 °F /  5.9 °C 30.3 in /  1026.6 hPa NNE 5 mph /  8.0 km/h 10 mph /  16.1 km/h 93 % 0 in /  0.0 mm
00:27 44.6 °F /  7.0 °C 42.6 °F /  5.9 °C 30.3 in /  1026.6 hPa NNE 3 mph /  4.8 km/h 11 mph /  17.7 km/h 93 % 0 in /  0.0 mm
00:32 44.6 °F /  7.0 °C 42.6 °F /  5.9 °C 30.3 in /  1026.6 hPa NW 1 mph /  1.6 km/h 11 mph /  17.7 km/h 93 % 0 in /  0.0 mm
00:37 44.6 °F /  7.0 °C 43 °F /  6.1 °C 30.3 in /  1026.6 hPa NNW 2 mph /  3.2 km/h 11 mph /  17.7 km/h 94 % 0 in /  0.0 mm
00:42 44.6 °F /  7.0 °C 42.6 °F /  5.9 °C 30.3 in /  1026.6 hPa NNE 7 mph /  11.3 km/h 10 mph /  16.1 km/h 93 % 0 in /  0.0 mm
00:52 44.4 °F /  6.9 °C 42.4 °F /  5.8 °C 30.3 in /  1026.3 hPa ENE 4 mph /  6.4 km/h 9 mph /  14.5 km/h 93 % 0 in /  0.0 mm
01:02 44.4 °F /  6.9 °C 42.8 °F /  6.0 °C 30.3 in /  1026.3 hPa NNE 3 mph /  4.8 km/h 10 mph /  16.1 km/h 94 % 0 in /  0.0 mm
01:07 44.4 °F /  6.9 °C 42.8 °F /  6.0 °C 30.3 in /  1026.3 hPa Calm   8 mph /  12.9 km/h 94 % 0 in /  0.0 mm
01:17 44.4 °F /  6.9 °C 42.8 °F /  6.0 °C 30.3 in /  1026.3 hPa NE 2 mph /  3.2 km/h 8 mph /  12.9 km/h 94 % 0 in /  0.0 mm
01:22 44.4 °F /  6.9 °C 42.8 °F /  6.0 °C 30.3 in /  1026.3 hPa North 2 mph /  3.2 km/h 8 mph /  12.9 km/h 94 % 0 in /  0.0 mm
01:27 44.2 °F /  6.8 °C 42.6 °F /  5.9 °C 30.3 in /  1026.3 hPa ENE 3 mph /  4.8 km/h 6 mph /  9.7 km/h 94 % 0 in /  0.0 mm
01:32 44.2 °F /  6.8 °C 42.3 °F /  5.7 °C 30.3 in /  1026.3 hPa NNE 5 mph /  8.0 km/h 9 mph /  14.5 km/h 93 % 0 in /  0.0 mm
01:37 44.2 °F /  6.8 °C 42.3 °F /  5.7 °C 30.3 in /  1026.3 hPa NNE 5 mph /  8.0 km/h 9 mph /  14.5 km/h 93 % 0 in /  0.0 mm
01:42 44.2 °F /  6.8 °C 42.3 °F /  5.7 °C 30.3 in /  1026.3 hPa ENE 4 mph /  6.4 km/h 11 mph /  17.7 km/h 93 % 0 in /  0.0 mm
01:47 44.4 °F /  6.9 °C 42.4 °F /  5.8 °C 30.3 in /  1026.3 hPa ENE 3 mph /  4.8 km/h 11 mph /  17.7 km/h 93 % 0 in /  0.0 mm
01:52 44.2 °F /  6.8 °C 42.3 °F /  5.7 °C 30.3 in /  1026.3 hPa North 1 mph /  1.6 km/h 10 mph /  16.1 km/h 93 % 0 in /  0.0 mm
01:57 44.4 °F /  6.9 °C 42.4 °F /  5.8 °C 30.3 in /  1026.3 hPa NNE 4 mph /  6.4 km/h 7 mph /  11.3 km/h 93 % 0 in /  0.0 mm
02:02 44.4 °F /  6.9 °C 42.4 °F /  5.8 °C 30.3 in /  1026.3 hPa NE 3 mph /  4.8 km/h 6 mph /  9.7 km/h 93 % 0 in /  0.0 mm
02:12 44.4 °F /  6.9 °C 42.4 °F /  5.8 °C 30.3 in /  1026.3 hPa NNE 6 mph /  9.7 km/h 9 mph /  14.5 km/h 93 % 0 in /  0.0 mm
02:17 44.4 °F /  6.9 °C 42.4 °F /  5.8 °C 30.3 in /  1026.0 hPa NE 3 mph /  4.8 km/h 9 mph /  14.5 km/h 93 % 0 in /  0.0 mm
02:22 44.4 °F /  6.9 °C 42.4 °F /  5.8 °C 30.3 in /  1026.3 hPa NNE 5 mph /  8.0 km/h 9 mph /  14.5 km/h 93 % 0 in /  0.0 mm
02:32 44.4 °F /  6.9 °C 42.4 °F /  5.8 °C 30.3 in /  1026.3 hPa NE 4 mph /  6.4 km/h 7 mph /  11.3 km/h 93 % 0 in /  0.0 mm
02:37 44.4 °F /  6.9 °C 42.3 °F /  5.7 °C 30.3 in /  1026.3 hPa NE 5 mph /  8.0 km/h 7 mph /  11.3 km/h 92 % 0 in /  0.0 mm
02:47 44.6 °F /  7.0 °C 42.4 °F /  5.8 °C 30.3 in /  1026.3 hPa North 1 mph /  1.6 km/h 10 mph /  16.1 km/h 92 % 0 in /  0.0 mm
02:52 44.8 °F /  7.1 °C 42.6 °F /  5.9 °C 30.3 in /  1026.3 hPa Calm   10 mph /  16.1 km/h 92 % 0 in /  0.0 mm
02:57 44.8 °F /  7.1 °C 42.6 °F /  5.9 °C 30.3 in /  1026.3 hPa NNE 1 mph /  1.6 km/h 10 mph /  16.1 km/h 92 % 0 in /  0.0 mm
03:02 44.8 °F /  7.1 °C 42.6 °F /  5.9 °C 30.3 in /  1026.3 hPa NE 4 mph /  6.4 km/h 7 mph /  11.3 km/h 92 % 0 in /  0.0 mm
03:07 44.8 °F /  7.1 °C 42.6 °F /  5.9 °C 30.3 in /  1026.3 hPa NE 3 mph /  4.8 km/h 7 mph /  11.3 km/h 92 % 0 in /  0.0 mm
03:12 44.8 °F /  7.1 °C 42.3 °F /  5.7 °C 30.3 in /  1026.3 hPa NNE 6 mph /  9.7 km/h 7 mph /  11.3 km/h 91 % 0 in /  0.0 mm
03:17 44.8 °F /  7.1 °C 42.3 °F /  5.7 °C 30.3 in /  1026.3 hPa ENE 1 mph /  1.6 km/h 7 mph /  11.3 km/h 91 % 0 in /  0.0 mm
03:22 44.8 °F /  7.1 °C 42.3 °F /  5.7 °C 30.3 in /  1026.3 hPa NE 1 mph /  1.6 km/h 7 mph /  11.3 km/h 91 % 0 in /  0.0 mm
03:27 44.8 °F /  7.1 °C 42.6 °F /  5.9 °C 30.3 in /  1026.3 hPa NE 1 mph /  1.6 km/h 6 mph /  9.7 km/h 92 % 0 in /  0.0 mm
03:32 44.1 °F /  6.7 °C 41.9 °F /  5.5 °C 30.3 in /  1026.3 hPa NNE 2 mph /  3.2 km/h 4 mph /  6.4 km/h 92 % 0 in /  0.0 mm
03:37 44.2 °F /  6.8 °C 42.1 °F /  5.6 °C 30.3 in /  1026.3 hPa NE 1 mph /  1.6 km/h 4 mph /  6.4 km/h 92 % 0 in /  0.0 mm
08:37 41.2 °F /  5.1 °C 39 °F /  3.9 °C 30.3 in /  1026.3 hPa Calm     92 % 0 in /  0.0 mm
08:42 41.2 °F /  5.1 °C 39 °F /  3.9 °C 30.3 in /  1026.6 hPa Calm     92 % 0 in /  0.0 mm
08:47 41 °F /  5.0 °C 38.8 °F /  3.8 °C 30.3 in /  1026.6 hPa Calm   1 mph /  1.6 km/h 92 % 0 in /  0.0 mm
08:52 41.2 °F /  5.1 °C 39.4 °F /  4.1 °C 30.3 in /  1026.6 hPa Calm   1 mph /  1.6 km/h 93 % 0 in /  0.0 mm
08:57 41.4 °F /  5.2 °C 39.6 °F /  4.2 °C 30.3 in /  1026.6 hPa Calm   1 mph /  1.6 km/h 93 % 0 in /  0.0 mm
09:02 41.4 °F /  5.2 °C 39.2 °F /  4.0 °C 30.3 in /  1026.6 hPa Calm   1 mph /  1.6 km/h 92 % 0 in /  0.0 mm
09:07 41.5 °F /  5.3 °C 39.4 °F /  4.1 °C 30.3 in /  1026.6 hPa Calm   1 mph /  1.6 km/h 92 % 0 in /  0.0 mm
09:12 41.5 °F /  5.3 °C 39.4 °F /  4.1 °C 30.3 in /  1026.6 hPa Calm   1 mph /  1.6 km/h 92 % 0 in /  0.0 mm
09:17 41.7 °F /  5.4 °C 39.6 °F /  4.2 °C 30.3 in /  1026.6 hPa Calm     92 % 0 in /  0.0 mm
09:22 41.7 °F /  5.4 °C 39.6 °F /  4.2 °C 30.3 in /  1026.6 hPa Calm   1 mph /  1.6 km/h 92 % 0 in /  0.0 mm
09:27 42.3 °F /  5.7 °C 40.1 °F /  4.5 °C 30.3 in /  1026.6 hPa Calm   1 mph /  1.6 km/h 92 % 0 in /  0.0 mm
09:32 42.4 °F /  5.8 °C 39.9 °F /  4.4 °C 30.3 in /  1026.6 hPa Calm   1 mph /  1.6 km/h 91 % 0 in /  0.0 mm
09:42 43.3 °F /  6.3 °C 40.8 °F /  4.9 °C 30.3 in /  1026.6 hPa Calm     91 % 0 in /  0.0 mm
09:47 44.1 °F /  6.7 °C 41.5 °F /  5.3 °C 30.3 in /  1026.6 hPa Calm   1 mph /  1.6 km/h 91 % 0 in /  0.0 mm
09:52 45 °F /  7.2 °C 42.4 °F /  5.8 °C 30.3 in /  1026.6 hPa Calm   1 mph /  1.6 km/h 91 % 0 in /  0.0 mm
10:02 46.2 °F /  7.9 °C 41.7 °F /  5.4 °C 30.3 in /  1027.0 hPa Calm   1 mph /  1.6 km/h 84 % 0 in /  0.0 mm
10:12 45.5 °F /  7.5 °C 41 °F /  5.0 °C 30.3 in /  1027.3 hPa Calm   1 mph /  1.6 km/h 84 % 0 in /  0.0 mm
10:17 45.5 °F /  7.5 °C 41 °F /  5.0 °C 30.3 in /  1027.0 hPa NNE 1 mph /  1.6 km/h 2 mph /  3.2 km/h 84 % 0 in /  0.0 mm
10:22 45.3 °F /  7.4 °C 40.8 °F /  4.9 °C 30.3 in /  1027.0 hPa NE 2 mph /  3.2 km/h 2 mph /  3.2 km/h 84 % 0 in /  0.0 mm
10:32 45.3 °F /  7.4 °C 40.8 °F /  4.9 °C 30.3 in /  1027.0 hPa NNE 1 mph /  1.6 km/h 2 mph /  3.2 km/h 84 % 0 in /  0.0 mm
10:42 46 °F /  7.8 °C 41.2 °F /  5.1 °C 30.3 in /  1027.0 hPa Calm   2 mph /  3.2 km/h 83 % 0 in /  0.0 mm
10:47 46.9 °F /  8.3 °C 42.1 °F /  5.6 °C 30.3 in /  1027.0 hPa Calm   2 mph /  3.2 km/h 83 % 0 in /  0.0 mm
10:52 47.1 °F /  8.4 °C 40.6 °F /  4.8 °C 30.3 in /  1027.3 hPa Calm   2 mph /  3.2 km/h 78 % 0 in /  0.0 mm
11:02 47.3 °F /  8.5 °C 40.5 °F /  4.7 °C 30.3 in /  1027.3 hPa Calm   1 mph /  1.6 km/h 77 % 0 in /  0.0 mm
11:12 47.1 °F /  8.4 °C 40.3 °F /  4.6 °C 30.3 in /  1027.3 hPa Calm   1 mph /  1.6 km/h 77 % 0 in /  0.0 mm
11:17 47.5 °F /  8.6 °C 40.6 °F /  4.8 °C 30.3 in /  1027.3 hPa Calm   5 mph /  8.0 km/h 77 % 0 in /  0.0 mm
11:22 47.5 °F /  8.6 °C 40.3 °F /  4.6 °C 30.3 in /  1027.3 hPa Calm   5 mph /  8.0 km/h 76 % 0 in /  0.0 mm
11:27 47.8 °F /  8.8 °C 41 °F /  5.0 °C 30.3 in /  1027.3 hPa North 3 mph /  4.8 km/h 5 mph /  8.0 km/h 77 % 0 in /  0.0 mm
11:32 47.8 °F /  8.8 °C 40.3 °F /  4.6 °C 30.3 in /  1027.3 hPa NE 1 mph /  1.6 km/h 2 mph /  3.2 km/h 75 % 0 in /  0.0 mm
11:37 47.7 °F /  8.7 °C 40.1 °F /  4.5 °C 30.3 in /  1027.0 hPa Calm   4 mph /  6.4 km/h 75 % 0 in /  0.0 mm
11:42 47.5 °F /  8.6 °C 40.3 °F /  4.6 °C 30.3 in /  1027.0 hPa ENE 2 mph /  3.2 km/h 4 mph /  6.4 km/h 76 % 0 in /  0.0 mm
11:47 47.3 °F /  8.5 °C 40.1 °F /  4.5 °C 30.3 in /  1027.0 hPa NNE 1 mph /  1.6 km/h 5 mph /  8.0 km/h 76 % 0 in /  0.0 mm
11:52 47.5 °F /  8.6 °C 40.3 °F /  4.6 °C 30.3 in /  1027.0 hPa NNW 3 mph /  4.8 km/h 6 mph /  9.7 km/h 76 % 0 in /  0.0 mm
11:57 47.5 °F /  8.6 °C 40.3 °F /  4.6 °C 30.3 in /  1027.0 hPa NE 3 mph /  4.8 km/h 6 mph /  9.7 km/h 76 % 0 in /  0.0 mm
12:02 46.9 °F /  8.3 °C 39.7 °F /  4.3 °C 30.3 in /  1027.0 hPa Calm   6 mph /  9.7 km/h 76 % 0 in /  0.0 mm
12:12 47.1 °F /  8.4 °C 39.2 °F /  4.0 °C 30.3 in /  1027.0 hPa NNW 3 mph /  4.8 km/h 6 mph /  9.7 km/h 74 % 0 in /  0.0 mm
12:17 47.1 °F /  8.4 °C 39.2 °F /  4.0 °C 30.3 in /  1027.0 hPa NNW 2 mph /  3.2 km/h 5 mph /  8.0 km/h 74 % 0 in /  0.0 mm
12:27 47.1 °F /  8.4 °C 39.6 °F /  4.2 °C 30.3 in /  1027.0 hPa North 2 mph /  3.2 km/h 5 mph /  8.0 km/h 75 % 0 in /  0.0 mm
12:32 47.1 °F /  8.4 °C 39.2 °F /  4.0 °C 30.3 in /  1027.0 hPa NNW 3 mph /  4.8 km/h 4 mph /  6.4 km/h 74 % 0 in /  0.0 mm
12:37 47.1 °F /  8.4 °C 38.8 °F /  3.8 °C 30.3 in /  1027.0 hPa North 3 mph /  4.8 km/h 4 mph /  6.4 km/h 73 % 0 in /  0.0 mm
12:42 47.1 °F /  8.4 °C 38.8 °F /  3.8 °C 30.3 in /  1026.6 hPa North 1 mph /  1.6 km/h 8 mph /  12.9 km/h 73 % 0 in /  0.0 mm
12:47 47.1 °F /  8.4 °C 38.8 °F /  3.8 °C 30.3 in /  1026.6 hPa NW 4 mph /  6.4 km/h 8 mph /  12.9 km/h 73 % 0 in /  0.0 mm
12:52 47.3 °F /  8.5 °C 38.7 °F /  3.7 °C 30.3 in /  1026.6 hPa WNW 2 mph /  3.2 km/h 6 mph /  9.7 km/h 72 % 0 in /  0.0 mm
12:57 47.5 °F /  8.6 °C 38.8 °F /  3.8 °C 30.3 in /  1026.6 hPa NW 2 mph /  3.2 km/h 6 mph /  9.7 km/h 72 % 0 in /  0.0 mm
13:02 47.7 °F /  8.7 °C 39 °F /  3.9 °C 30.3 in /  1026.6 hPa Calm   6 mph /  9.7 km/h 72 % 0 in /  0.0 mm
13:12 47.1 °F /  8.4 °C 41 °F /  5.0 °C 30.3 in /  1026.6 hPa NE 5 mph /  8.0 km/h 7 mph /  11.3 km/h 79 % 0 in /  0.0 mm
13:17 46.9 °F /  8.3 °C 40.8 °F /  4.9 °C 30.3 in /  1026.6 hPa NE 2 mph /  3.2 km/h 7 mph /  11.3 km/h 79 % 0 in /  0.0 mm
13:22 46.8 °F /  8.2 °C 40.3 °F /  4.6 °C 30.3 in /  1026.3 hPa NE 4 mph /  6.4 km/h 7 mph /  11.3 km/h 78 % 0 in /  0.0 mm
13:32 46.8 °F /  8.2 °C 40.6 °F /  4.8 °C 30.3 in /  1026.6 hPa Calm   6 mph /  9.7 km/h 79 % 0 in /  0.0 mm
13:37 46.9 °F /  8.3 °C 40.5 °F /  4.7 °C 30.3 in /  1026.6 hPa ENE 1 mph /  1.6 km/h 5 mph /  8.0 km/h 78 % 0 in /  0.0 mm
13:42 46.9 °F /  8.3 °C 40.8 °F /  4.9 °C 30.3 in /  1026.6 hPa Calm   5 mph /  8.0 km/h 79 % 0 in /  0.0 mm
13:52 46.9 °F /  8.3 °C 41.4 °F /  5.2 °C 30.3 in /  1026.6 hPa Calm   3 mph /  4.8 km/h 81 % 0 in /  0.0 mm
14:02 46.9 °F /  8.3 °C 41.2 °F /  5.1 °C 30.3 in /  1026.3 hPa Calm   5 mph /  8.0 km/h 80 % 0 in /  0.0 mm
14:12 47.1 °F /  8.4 °C 40.3 °F /  4.6 °C 30.3 in /  1026.3 hPa Calm   5 mph /  8.0 km/h 77 % 0 in /  0.0 mm
14:22 47.5 °F /  8.6 °C 41 °F /  5.0 °C 30.3 in /  1026.3 hPa Calm   6 mph /  9.7 km/h 78 % 0 in /  0.0 mm
14:32 47.3 °F /  8.5 °C 40.1 °F /  4.5 °C 30.3 in /  1026.3 hPa Calm   6 mph /  9.7 km/h 76 % 0 in /  0.0 mm
14:37 47.1 °F /  8.4 °C 39.6 °F /  4.2 °C 30.3 in /  1026.3 hPa NNW 1 mph /  1.6 km/h 5 mph /  8.0 km/h 75 % 0 in /  0.0 mm
14:42 47.1 °F /  8.4 °C 39.9 °F /  4.4 °C 30.3 in /  1026.3 hPa Calm   5 mph /  8.0 km/h 76 % 0 in /  0.0 mm
14:52 47.1 °F /  8.4 °C 38.8 °F /  3.8 °C 30.3 in /  1026.3 hPa NNE 1 mph /  1.6 km/h 5 mph /  8.0 km/h 73 % 0 in /  0.0 mm
14:57 47.1 °F /  8.4 °C 38.5 °F /  3.6 °C 30.3 in /  1026.3 hPa NNW 2 mph /  3.2 km/h 5 mph /  8.0 km/h 72 % 0 in /  0.0 mm
15:02 47.1 °F /  8.4 °C 38.5 °F /  3.6 °C 30.3 in /  1026.3 hPa NNW 4 mph /  6.4 km/h 5 mph /  8.0 km/h 72 % 0 in /  0.0 mm
15:07 47.1 °F /  8.4 °C 38.1 °F /  3.4 °C 30.3 in /  1026.3 hPa NW 5 mph /  8.0 km/h 7 mph /  11.3 km/h 71 % 0 in /  0.0 mm
15:12 47.1 °F /  8.4 °C 38.5 °F /  3.6 °C 30.3 in /  1026.3 hPa NNW 5 mph /  8.0 km/h 7 mph /  11.3 km/h 72 % 0 in /  0.0 mm
15:17 46.9 °F /  8.3 °C 38.3 °F /  3.5 °C 30.3 in /  1026.3 hPa NNW 5 mph /  8.0 km/h 7 mph /  11.3 km/h 72 % 0 in /  0.0 mm
15:22 46.8 °F /  8.2 °C 38.3 °F /  3.5 °C 30.3 in /  1026.3 hPa NNW 2 mph /  3.2 km/h 6 mph /  9.7 km/h 72 % 0 in /  0.0 mm
15:32 46.8 °F /  8.2 °C 38.5 °F /  3.6 °C 30.3 in /  1026.0 hPa Calm   7 mph /  11.3 km/h 73 % 0 in /  0.0 mm
15:37 46.8 °F /  8.2 °C 38.5 °F /  3.6 °C 30.3 in /  1026.0 hPa NNE 2 mph /  3.2 km/h 7 mph /  11.3 km/h 73 % 0 in /  0.0 mm
15:42 46.8 °F /  8.2 °C 38.8 °F /  3.8 °C 30.3 in /  1026.0 hPa NNW 2 mph /  3.2 km/h 7 mph /  11.3 km/h 74 % 0 in /  0.0 mm
15:47 46.8 °F /  8.2 °C 38.3 °F /  3.5 °C 30.3 in /  1026.0 hPa WNW 1 mph /  1.6 km/h 6 mph /  9.7 km/h 72 % 0 in /  0.0 mm
15:52 46.9 °F /  8.3 °C 38.3 °F /  3.5 °C 30.3 in /  1026.0 hPa Calm   5 mph /  8.0 km/h 72 % 0 in /  0.0 mm
15:57 46.9 °F /  8.3 °C 38.3 °F /  3.5 °C 30.3 in /  1026.0 hPa Calm   5 mph /  8.0 km/h 72 % 0 in /  0.0 mm
16:02 46.9 °F /  8.3 °C 38.3 °F /  3.5 °C 30.3 in /  1026.0 hPa Calm   3 mph /  4.8 km/h 72 % 0 in /  0.0 mm
16:07 46.9 °F /  8.3 °C 38.3 °F /  3.5 °C 30.3 in /  1026.0 hPa Calm   1 mph /  1.6 km/h 72 % 0 in /  0.0 mm
16:12 46.9 °F /  8.3 °C 38.3 °F /  3.5 °C 30.3 in /  1026.0 hPa West 1 mph /  1.6 km/h 1 mph /  1.6 km/h 72 % 0 in /  0.0 mm
16:17 46.9 °F /  8.3 °C 38.7 °F /  3.7 °C 30.3 in /  1026.0 hPa Calm   1 mph /  1.6 km/h 73 % 0 in /  0.0 mm
16:22 46.9 °F /  8.3 °C 38.7 °F /  3.7 °C 30.3 in /  1026.0 hPa WNW 1 mph /  1.6 km/h 1 mph /  1.6 km/h 73 % 0 in /  0.0 mm
16:27 46.9 °F /  8.3 °C 38.3 °F /  3.5 °C 30.3 in /  1026.0 hPa WSW 1 mph /  1.6 km/h 2 mph /  3.2 km/h 72 % 0 in /  0.0 mm
16:32 46.8 °F /  8.2 °C 38.5 °F /  3.6 °C 30.3 in /  1026.0 hPa Calm   2 mph /  3.2 km/h 73 % 0 in /  0.0 mm
16:37 46.8 °F /  8.2 °C 38.5 °F /  3.6 °C 30.3 in /  1026.0 hPa West 1 mph /  1.6 km/h 2 mph /  3.2 km/h 73 % 0 in /  0.0 mm
16:42 46.8 °F /  8.2 °C 38.5 °F /  3.6 °C 30.3 in /  1026.0 hPa WNW 2 mph /  3.2 km/h 2 mph /  3.2 km/h 73 % 0 in /  0.0 mm
16:47 46.8 °F /  8.2 °C 38.5 °F /  3.6 °C 30.3 in /  1026.0 hPa Calm   2 mph /  3.2 km/h 73 % 0 in /  0.0 mm
16:52 46.8 °F /  8.2 °C 38.5 °F /  3.6 °C 30.3 in /  1025.6 hPa Calm   2 mph /  3.2 km/h 73 % 0 in /  0.0 mm
16:57 46.8 °F /  8.2 °C 38.8 °F /  3.8 °C 30.3 in /  1025.6 hPa Calm   2 mph /  3.2 km/h 74 % 0 in /  0.0 mm
17:02 46.6 °F /  8.1 °C 38.7 °F /  3.7 °C 30.3 in /  1026.0 hPa Calm   2 mph /  3.2 km/h 74 % 0 in /  0.0 mm
17:07 46.6 °F /  8.1 °C 39 °F /  3.9 °C 30.3 in /  1025.6 hPa Calm   1 mph /  1.6 km/h 75 % 0 in /  0.0 mm
17:12 46.6 °F /  8.1 °C 39 °F /  3.9 °C 30.3 in /  1025.6 hPa Calm   1 mph /  1.6 km/h 75 % 0 in /  0.0 mm
17:17 46.2 °F /  7.9 °C 38.7 °F /  3.7 °C 30.3 in /  1025.6 hPa Calm   1 mph /  1.6 km/h 75 % 0 in /  0.0 mm
17:22 46.2 °F /  7.9 °C 39 °F /  3.9 °C 30.3 in /  1025.6 hPa Calm   1 mph /  1.6 km/h 76 % 0 in /  0.0 mm
17:27 46.2 °F /  7.9 °C 39 °F /  3.9 °C 30.3 in /  1025.6 hPa Calm     76 % 0 in /  0.0 mm
17:32 46 °F /  7.8 °C 38.8 °F /  3.8 °C 30.3 in /  1025.6 hPa Calm     76 % 0 in /  0.0 mm
17:37 46 °F /  7.8 °C 39.2 °F /  4.0 °C 30.3 in /  1025.6 hPa Calm     77 % 0 in /  0.0 mm
17:42 45.9 °F /  7.7 °C 39.4 °F /  4.1 °C 30.3 in /  1025.6 hPa Calm     78 % 0 in /  0.0 mm
17:47 45.9 °F /  7.7 °C 39.4 °F /  4.1 °C 30.3 in /  1026.0 hPa WNW 1 mph /  1.6 km/h 1 mph /  1.6 km/h 78 % 0 in /  0.0 mm
17:52 45.9 °F /  7.7 °C 39.4 °F /  4.1 °C 30.3 in /  1025.6 hPa WNW 1 mph /  1.6 km/h 1 mph /  1.6 km/h 78 % 0 in /  0.0 mm
17:57 45.9 °F /  7.7 °C 39.7 °F /  4.3 °C 30.3 in /  1026.0 hPa WNW 1 mph /  1.6 km/h 2 mph /  3.2 km/h 79 % 0 in /  0.0 mm
18:02 45.7 °F /  7.6 °C 39.6 °F /  4.2 °C 30.3 in /  1026.0 hPa WNW 1 mph /  1.6 km/h 2 mph /  3.2 km/h 79 % 0 in /  0.0 mm
18:12 45.7 °F /  7.6 °C 39.2 °F /  4.0 °C 30.3 in /  1025.6 hPa Calm   3 mph /  4.8 km/h 78 % 0 in /  0.0 mm
18:22 45.7 °F /  7.6 °C 39.6 °F /  4.2 °C 30.3 in /  1025.3 hPa Calm   3 mph /  4.8 km/h 79 % 0 in /  0.0 mm
18:27 45.7 °F /  7.6 °C 39.6 °F /  4.2 °C 30.3 in /  1025.6 hPa NW 2 mph /  3.2 km/h 2 mph /  3.2 km/h 79 % 0 in /  0.0 mm
18:32 45.5 °F /  7.5 °C 39.7 °F /  4.3 °C 30.3 in /  1025.6 hPa Calm   1 mph /  1.6 km/h 80 % 0 in /  0.0 mm
18:42 45.3 °F /  7.4 °C 40.1 °F /  4.5 °C 30.3 in /  1025.6 hPa NNW 1 mph /  1.6 km/h 3 mph /  4.8 km/h 82 % 0 in /  0.0 mm
18:47 45.1 °F /  7.3 °C 39.9 °F /  4.4 °C 30.3 in /  1025.6 hPa Calm   3 mph /  4.8 km/h 82 % 0 in /  0.0 mm
18:52 45.1 °F /  7.3 °C 39.9 °F /  4.4 °C 30.3 in /  1025.6 hPa Calm   3 mph /  4.8 km/h 82 % 0 in /  0.0 mm
19:02 45 °F /  7.2 °C 40.1 °F /  4.5 °C 30.3 in /  1025.6 hPa NW 1 mph /  1.6 km/h 1 mph /  1.6 km/h 83 % 0 in /  0.0 mm
19:07 45 °F /  7.2 °C 40.5 °F /  4.7 °C 30.3 in /  1025.6 hPa Calm   1 mph /  1.6 km/h 84 % 0 in /  0.0 mm
19:12 45 °F /  7.2 °C 40.5 °F /  4.7 °C 30.3 in /  1025.6 hPa Calm   1 mph /  1.6 km/h 84 % 0 in /  0.0 mm
19:17 44.8 °F /  7.1 °C 40.3 °F /  4.6 °C 30.3 in /  1025.6 hPa Calm   1 mph /  1.6 km/h 84 % 0 in /  0.0 mm
19:22 44.8 °F /  7.1 °C 40.5 °F /  4.7 °C 30.3 in /  1025.3 hPa Calm   1 mph /  1.6 km/h 85 % 0 in /  0.0 mm
19:32 44.8 °F /  7.1 °C 40.5 °F /  4.7 °C 30.3 in /  1025.6 hPa Calm   1 mph /  1.6 km/h 85 % 0 in /  0.0 mm
19:37 44.8 °F /  7.1 °C 40.5 °F /  4.7 °C 30.3 in /  1025.6 hPa Calm   1 mph /  1.6 km/h 85 % 0 in /  0.0 mm
19:42 44.8 °F /  7.1 °C 40.5 °F /  4.7 °C 30.3 in /  1025.6 hPa Calm   1 mph /  1.6 km/h 85 % 0 in /  0.0 mm
19:47 44.6 °F /  7.0 °C 40.5 °F /  4.7 °C 30.3 in /  1025.6 hPa Calm   1 mph /  1.6 km/h 85 % 0 in /  0.0 mm
19:52 44.6 °F /  7.0 °C 40.5 °F /  4.7 °C 30.3 in /  1025.6 hPa Calm   1 mph /  1.6 km/h 85 % 0 in /  0.0 mm
19:57 44.4 °F /  6.9 °C 40.5 °F /  4.7 °C 30.3 in /  1025.6 hPa Calm   1 mph /  1.6 km/h 86 % 0 in /  0.0 mm
20:02 44.4 °F /  6.9 °C 40.3 °F /  4.6 °C 30.3 in /  1025.6 hPa Calm   1 mph /  1.6 km/h 85 % 0 in /  0.0 mm
20:12 44.8 °F /  7.1 °C 40.3 °F /  4.6 °C 30.3 in /  1025.3 hPa Calm   1 mph /  1.6 km/h 84 % 0 in /  0.0 mm
20:17 44.8 °F /  7.1 °C 40.3 °F /  4.6 °C 30.3 in /  1025.3 hPa Calm   2 mph /  3.2 km/h 84 % 0 in /  0.0 mm
20:22 44.8 °F /  7.1 °C 40.5 °F /  4.7 °C 30.3 in /  1025.6 hPa Calm   2 mph /  3.2 km/h 85 % 0 in /  0.0 mm
20:32 44.4 °F /  6.9 °C 40.3 °F /  4.6 °C 30.3 in /  1025.6 hPa WNW 1 mph /  1.6 km/h 1 mph /  1.6 km/h 85 % 0 in /  0.0 mm
20:37 44.2 °F /  6.8 °C 40.3 °F /  4.6 °C 30.3 in /  1025.6 hPa Calm   1 mph /  1.6 km/h 86 % 0 in /  0.0 mm
20:42 44.1 °F /  6.7 °C 40.5 °F /  4.7 °C 30.3 in /  1025.3 hPa Calm   1 mph /  1.6 km/h 87 % 0 in /  0.0 mm
20:47 44.1 °F /  6.7 °C 40.5 °F /  4.7 °C 30.3 in /  1025.3 hPa Calm   1 mph /  1.6 km/h 87 % 0 in /  0.0 mm
20:52 44.1 °F /  6.7 °C 40.1 °F /  4.5 °C 30.3 in /  1025.3 hPa Calm   2 mph /  3.2 km/h 86 % 0 in /  0.0 mm
20:57 43.9 °F /  6.6 °C 39.9 °F /  4.4 °C 30.3 in /  1025.3 hPa Calm   2 mph /  3.2 km/h 86 % 0 in /  0.0 mm
21:02 43.7 °F /  6.5 °C 39.7 °F /  4.3 °C 30.3 in /  1025.3 hPa Calm   2 mph /  3.2 km/h 86 % 0 in /  0.0 mm
21:07 43.7 °F /  6.5 °C 40.1 °F /  4.5 °C 30.3 in /  1025.3 hPa Calm   2 mph /  3.2 km/h 87 % 0 in /  0.0 mm
21:12 43.7 °F /  6.5 °C 39.7 °F /  4.3 °C 30.3 in /  1025.3 hPa SW 1 mph /  1.6 km/h 3 mph /  4.8 km/h 86 % 0 in /  0.0 mm
21:17 43.7 °F /  6.5 °C 39.6 °F /  4.2 °C 30.3 in /  1025.3 hPa West 1 mph /  1.6 km/h 3 mph /  4.8 km/h 85 % 0 in /  0.0 mm
21:22 43.5 °F /  6.4 °C 39.4 °F /  4.1 °C 30.3 in /  1025.3 hPa West 1 mph /  1.6 km/h 3 mph /  4.8 km/h 85 % 0 in /  0.0 mm
21:27 43.3 °F /  6.3 °C 39.2 °F /  4.0 °C 30.3 in /  1025.3 hPa Calm   4 mph /  6.4 km/h 85 % 0 in /  0.0 mm
21:32 43.3 °F /  6.3 °C 39.2 °F /  4.0 °C 30.3 in /  1025.3 hPa WSW 2 mph /  3.2 km/h 4 mph /  6.4 km/h 85 % 0 in /  0.0 mm
21:37 43.3 °F /  6.3 °C 39.2 °F /  4.0 °C 30.3 in /  1025.3 hPa WSW 2 mph /  3.2 km/h 4 mph /  6.4 km/h 85 % 0 in /  0.0 mm
21:42 43.2 °F /  6.2 °C 39.2 °F /  4.0 °C 30.3 in /  1025.3 hPa WSW 1 mph /  1.6 km/h 4 mph /  6.4 km/h 86 % 0 in /  0.0 mm
21:47 43.2 °F /  6.2 °C 39.2 °F /  4.0 °C 30.3 in /  1025.3 hPa WSW 1 mph /  1.6 km/h 3 mph /  4.8 km/h 86 % 0 in /  0.0 mm
21:52 43 °F /  6.1 °C 38.8 °F /  3.8 °C 30.3 in /  1025.3 hPa West 1 mph /  1.6 km/h 4 mph /  6.4 km/h 85 % 0 in /  0.0 mm
21:57 42.8 °F /  6.0 °C 38.8 °F /  3.8 °C 30.3 in /  1025.3 hPa West 2 mph /  3.2 km/h 4 mph /  6.4 km/h 86 % 0 in /  0.0 mm
22:02 42.4 °F /  5.8 °C 38.5 °F /  3.6 °C 30.3 in /  1025.3 hPa West 3 mph /  4.8 km/h 6 mph /  9.7 km/h 86 % 0 in /  0.0 mm
22:07 42.3 °F /  5.7 °C 38.7 °F /  3.7 °C 30.3 in /  1025.3 hPa West 2 mph /  3.2 km/h 6 mph /  9.7 km/h 87 % 0 in /  0.0 mm
22:12 41.7 °F /  5.4 °C 38.5 °F /  3.6 °C 30.3 in /  1024.9 hPa West 2 mph /  3.2 km/h 6 mph /  9.7 km/h 88 % 0 in /  0.0 mm
22:17 41.4 °F /  5.2 °C 38.3 °F /  3.5 °C 30.3 in /  1024.9 hPa West 1 mph /  1.6 km/h 5 mph /  8.0 km/h 89 % 0 in /  0.0 mm
22:27 41.5 °F /  5.3 °C 38.5 °F /  3.6 °C 30.3 in /  1024.9 hPa West 2 mph /  3.2 km/h 3 mph /  4.8 km/h 89 % 0 in /  0.0 mm
22:32 41.4 °F /  5.2 °C 38.3 °F /  3.5 °C 30.3 in /  1024.9 hPa West 1 mph /  1.6 km/h 3 mph /  4.8 km/h 89 % 0 in /  0.0 mm
22:37 40.8 °F /  4.9 °C 37.8 °F /  3.2 °C 30.3 in /  1024.9 hPa West 1 mph /  1.6 km/h 3 mph /  4.8 km/h 89 % 0 in /  0.0 mm
22:42 40.6 °F /  4.8 °C 37.9 °F /  3.3 °C 30.3 in /  1024.9 hPa WNW 1 mph /  1.6 km/h 2 mph /  3.2 km/h 90 % 0 in /  0.0 mm
22:47 40.6 °F /  4.8 °C 37.9 °F /  3.3 °C 30.3 in /  1024.9 hPa WNW 1 mph /  1.6 km/h 2 mph /  3.2 km/h 90 % 0 in /  0.0 mm
22:52 40.6 °F /  4.8 °C 38.3 °F /  3.5 °C 30.3 in /  1024.9 hPa Calm   2 mph /  3.2 km/h 91 % 0 in /  0.0 mm
22:57 40.8 °F /  4.9 °C 38.5 °F /  3.6 °C 30.3 in /  1024.9 hPa Calm   2 mph /  3.2 km/h 91 % 0 in /  0.0 mm
23:02 40.8 °F /  4.9 °C 38.1 °F /  3.4 °C 30.3 in /  1024.9 hPa WNW 1 mph /  1.6 km/h 2 mph /  3.2 km/h 90 % 0 in /  0.0 mm
23:07 40.6 °F /  4.8 °C 38.3 °F /  3.5 °C 30.3 in /  1024.9 hPa WNW 1 mph /  1.6 km/h 2 mph /  3.2 km/h 91 % 0 in /  0.0 mm
23:12 40.5 °F /  4.7 °C 37.8 °F /  3.2 °C 30.3 in /  1024.9 hPa Calm   1 mph /  1.6 km/h 90 % 0 in /  0.0 mm
23:17 40.3 °F /  4.6 °C 37.9 °F /  3.3 °C 30.3 in /  1024.9 hPa Calm   1 mph /  1.6 km/h 91 % 0 in /  0.0 mm
23:22 39.9 °F /  4.4 °C 37.6 °F /  3.1 °C 30.3 in /  1024.9 hPa Calm   1 mph /  1.6 km/h 91 % 0 in /  0.0 mm
23:32 39.7 °F /  4.3 °C 37.6 °F /  3.1 °C 30.3 in /  1024.9 hPa Calm   1 mph /  1.6 km/h 92 % 0 in /  0.0 mm
23:37 39.9 °F /  4.4 °C 38.1 °F /  3.4 °C 30.3 in /  1024.9 hPa WNW 1 mph /  1.6 km/h 2 mph /  3.2 km/h 93 % 0 in /  0.0 mm
23:42 40.3 °F /  4.6 °C 38.1 °F /  3.4 °C 30.3 in /  1024.9 hPa West 1 mph /  1.6 km/h 2 mph /  3.2 km/h 92 % 0 in /  0.0 mm
23:52 40.5 °F /  4.7 °C 38.3 °F /  3.5 °C 30.3 in /  1024.9 hPa Calm   2 mph /  3.2 km/h 92 % 0 in /  0.0 mm
Meteo18
Compliments of Weather Underground - 4 mb

Script developed by  Jim McMurry - jmcmurry@mwt.net Adapted for the template by  Wim van der Kuil - Leuven-Template.eu

You find our weather info also at:

European Weather Network

Weather Underground

Equipment we use:

Weather-station
Davis Vue

Weather-program
Meteohub

Weather-server
Raspberry PI 2 B+

Provider
1 and 1

Davis Vue

Meteohub

Raspberry PI 2 B+

1 and 1